메인 페이지
METAR-TAF:

METAR-TAF

공항 :

Wittering, 잉글랜드

위도: 52-37N, 경도: 000-28W, 고도: 84m

현재 날씨관측

예보는 30분 전, 08:20시(UTC)에 발표되었습니다.
남남서14kt
온도 15°C
습도 72%
기압 999 hPa
시정 10km 이상
고도 1600ft 상공 구름 많음

METAR: EGXT 140820Z 20014KT 9999 BKN016 15/10 Q0999 RMK WHT

시각: 09:50 (08:50 UTC)

예보

예보는 50분 전, 08:00시(UTC)에 발표되었습니다.
예보 대상 시간: 14일 09시부터 14일 18시까지 (UTC)
남서14kt
시정 10km 이상
고도 1800ft 상공 구름 조금
확률 30% :
일시적
14일 09시부터 14일 14시까지 (UTC)
서남서15kt, 순간 최대 풍속 25kt
확률 30% :
일시적
14일 09시부터 14일 14시까지 (UTC)
시정: 7000m
고도 1800ft 상공 구름 보통
소나기
일시적
14일 14시부터 14일 18시까지 (UTC)
시정: 5000m
고도 2000ft 상공 구름 보통
고도 3000ft 상공 구름 보통, 적란운.
소나기,

TAF: EGXT 140800Z 1409/1418 23014KT 9999 FEW018 PROB30 TEMPO 1409/1414 24015G25KT PROB30 TEMPO 1409/1414 7000 SHRA SCT018 TEMPO 1414/1418 5000 SHRA SCT020 SCT030CB

4,000개 이상의 공항 관측 자료 및 예보 (METAR 및 TAF 보고).

지도상에서 검색 가능한 기상관측소가 노란 점과 빨간 점으로 표시되어 있습니다.

기상관측소 명을 보려면 표시 위로 마우스를 이동하세요.

날씨 관측과 예보를 보려면 클릭하세요.

지도 변경 : 확대하려면 엑스 표시가 있는 녹색 버튼, 축소하려면 빼기 표시가 있는 녹색 버튼, 다음 페이지의 지도를 보려면 녹색 화살표를 클릭하세요.


METAR-TAF: